createdAt,value
2017-02-04T00:00:21.427Z,924
2017-02-04T00:01:34.499Z,923.96
2017-02-04T00:02:48.188Z,923.93
2017-02-04T00:04:01.916Z,923.97
2017-02-04T00:05:15.612Z,923.97
2017-02-04T00:06:29.291Z,923.98
2017-02-04T00:07:42.989Z,924.03
2017-02-04T00:08:56.667Z,924.02
2017-02-04T00:10:10.343Z,924.03
2017-02-04T00:11:23.997Z,924.08
2017-02-04T00:12:37.095Z,924.11
2017-02-04T00:13:50.180Z,924.1
2017-02-04T00:15:03.862Z,924.14
2017-02-04T00:16:16.957Z,924.18
2017-02-04T00:17:30.621Z,924.25
2017-02-04T00:18:44.344Z,924.22
2017-02-04T00:19:58.002Z,924.22
2017-02-04T00:21:11.069Z,924.2
2017-02-04T00:22:24.752Z,924.28
2017-02-04T00:23:38.471Z,924.25
2017-02-04T00:24:52.183Z,924.27
2017-02-04T00:26:05.884Z,924.3
2017-02-04T00:27:18.383Z,924.31
2017-02-04T00:28:32.111Z,924.36
2017-02-04T00:29:45.196Z,924.36
2017-02-04T00:30:58.879Z,924.36
2017-02-04T00:32:12.607Z,924.39
2017-02-04T00:33:26.287Z,924.44
2017-02-04T00:34:39.962Z,924.46
2017-02-04T00:35:53.636Z,924.43
2017-02-04T00:37:07.376Z,924.44
2017-02-04T00:38:21.052Z,924.49
2017-02-04T00:39:34.711Z,924.46
2017-02-04T00:40:48.560Z,924.44
2017-02-04T00:42:01.645Z,924.42
2017-02-04T00:43:15.336Z,924.4
2017-02-04T00:44:29.060Z,924.39
2017-02-04T00:45:42.776Z,924.39
2017-02-04T00:46:56.464Z,924.39
2017-02-04T00:48:09.549Z,924.39
2017-02-04T00:49:23.233Z,924.46
2017-02-04T00:50:36.943Z,924.46
2017-02-04T00:51:50.584Z,924.45
2017-02-04T00:53:03.706Z,924.51
2017-02-04T00:54:16.788Z,924.53
2017-02-04T00:55:30.445Z,924.51
2017-02-04T00:56:44.142Z,924.52
2017-02-04T00:57:57.277Z,924.52
2017-02-04T00:59:10.973Z,924.56
2017-02-04T01:00:24.653Z,924.55
2017-02-04T01:01:38.367Z,924.64
2017-02-04T01:02:52.089Z,924.59
2017-02-04T01:04:05.793Z,924.61
2017-02-04T01:05:18.855Z,924.61
2017-02-04T01:06:32.541Z,924.62
2017-02-04T01:07:46.281Z,924.64
2017-02-04T01:08:59.974Z,924.63
2017-02-04T01:10:13.676Z,924.63
2017-02-04T01:11:27.336Z,924.61
2017-02-04T01:12:41.018Z,924.59
2017-02-04T01:13:54.686Z,924.59
2017-02-04T01:15:08.349Z,924.6
2017-02-04T01:16:22.028Z,924.59
2017-02-04T01:17:35.168Z,924.55
2017-02-04T01:18:49.050Z,924.52
2017-02-04T01:20:02.710Z,924.46
2017-02-04T01:21:16.409Z,924.44
2017-02-04T01:22:30.111Z,924.4
2017-02-04T01:23:43.804Z,924.4
2017-02-04T01:24:57.582Z,924.38
2017-02-04T01:26:11.341Z,924.38
2017-02-04T01:27:25.106Z,924.42
2017-02-04T01:28:38.766Z,924.42
2017-02-04T01:29:51.819Z,924.41
2017-02-04T01:31:05.509Z,924.41
2017-02-04T01:32:19.249Z,924.38
2017-02-04T01:33:33.708Z,924.39
2017-02-04T01:34:46.790Z,924.39
2017-02-04T01:36:00.545Z,924.39
2017-02-04T01:37:13.652Z,924.39
2017-02-04T01:38:27.379Z,924.35
2017-02-04T01:39:41.030Z,924.39
2017-02-04T01:40:54.154Z,924.34
2017-02-04T01:42:07.793Z,924.37
2017-02-04T01:43:21.491Z,924.38
2017-02-04T01:44:34.634Z,924.37
2017-02-04T01:45:48.300Z,924.36
2017-02-04T01:47:02.015Z,924.41
2017-02-04T01:48:15.690Z,924.36
2017-02-04T01:49:29.383Z,924.34
2017-02-04T01:50:42.576Z,924.33
2017-02-04T01:51:56.351Z,924.31
2017-02-04T01:53:10.041Z,924.33
2017-02-04T01:54:23.890Z,924.35
2017-02-04T01:55:36.527Z,924.4
2017-02-04T01:56:50.210Z,924.41
2017-02-04T01:58:03.280Z,924.41
2017-02-04T01:59:16.384Z,924.42
2017-02-04T02:00:30.098Z,924.4
2017-02-04T02:01:44.427Z,924.36
2017-02-04T02:02:58.781Z,924.33
2017-02-04T02:04:12.494Z,924.32
2017-02-04T02:05:26.860Z,924.37
2017-02-04T02:06:39.938Z,924.34
2017-02-04T02:07:54.293Z,924.37
2017-02-04T02:09:08.681Z,924.39
2017-02-04T02:10:23.075Z,924.41
2017-02-04T02:11:37.429Z,924.41
2017-02-04T02:12:51.793Z,924.41
2017-02-04T02:14:06.179Z,924.41
2017-02-04T02:15:20.524Z,924.42
2017-02-04T02:16:34.884Z,924.38
2017-02-04T02:17:49.260Z,924.39
2017-02-04T02:19:03.633Z,924.4
2017-02-04T02:20:18.025Z,924.37
2017-02-04T02:21:32.361Z,924.39
2017-02-04T02:22:46.753Z,924.38
2017-02-04T02:24:01.139Z,924.41
2017-02-04T02:25:15.503Z,924.45
2017-02-04T02:26:29.886Z,924.49
2017-02-04T02:27:44.273Z,924.49
2017-02-04T02:28:58.614Z,924.45
2017-02-04T02:30:13.007Z,924.45
2017-02-04T02:31:26.106Z,924.4
2017-02-04T02:32:40.480Z,924.38
2017-02-04T02:33:54.846Z,924.36
2017-02-04T02:35:08.602Z,924.34
2017-02-04T02:36:22.952Z,924.34
2017-02-04T02:37:37.322Z,924.38
2017-02-04T02:38:51.687Z,924.37
2017-02-04T02:40:06.070Z,924.36
2017-02-04T02:41:19.818Z,924.37
2017-02-04T02:42:34.186Z,924.36
2017-02-04T02:43:48.564Z,924.36
2017-02-04T02:45:02.931Z,924.36
2017-02-04T02:46:17.592Z,924.38
2017-02-04T02:47:31.953Z,924.35
2017-02-04T02:48:46.364Z,924.38
2017-02-04T02:50:00.805Z,924.4
2017-02-04T02:51:15.204Z,924.42
2017-02-04T02:52:29.584Z,924.4
2017-02-04T02:53:43.348Z,924.39
2017-02-04T02:54:57.720Z,924.34
2017-02-04T02:56:12.087Z,924.32
2017-02-04T02:57:26.414Z,924.34
2017-02-04T02:58:40.770Z,924.27
2017-02-04T02:59:54.580Z,924.29
2017-02-04T03:01:08.942Z,924.29
2017-02-04T03:02:23.326Z,924.24
2017-02-04T03:03:37.681Z,924.28
2017-02-04T03:04:51.427Z,924.27
2017-02-04T03:06:05.896Z,924.21
2017-02-04T03:07:20.521Z,924.2
2017-02-04T03:08:34.891Z,924.15
2017-02-04T03:09:49.277Z,924.07
2017-02-04T03:11:03.612Z,924.08
2017-02-04T03:12:17.985Z,924.05
2017-02-04T03:13:31.715Z,924.03
2017-02-04T03:14:46.079Z,923.94
2017-02-04T03:16:00.449Z,923.97
2017-02-04T03:17:14.188Z,923.93
2017-02-04T03:18:28.638Z,923.96
2017-02-04T03:19:43.014Z,923.88
2017-02-04T03:20:56.062Z,923.87
2017-02-04T03:22:10.418Z,923.96
2017-02-04T03:23:24.164Z,923.92
2017-02-04T03:24:38.532Z,923.91
2017-02-04T03:25:52.265Z,923.92
2017-02-04T03:27:06.595Z,923.99
2017-02-04T03:28:20.976Z,923.91
2017-02-04T03:29:34.699Z,923.86
2017-02-04T03:30:49.055Z,923.85
2017-02-04T03:32:03.459Z,923.78
2017-02-04T03:33:17.254Z,923.75
2017-02-04T03:34:31.611Z,923.7
2017-02-04T03:35:45.997Z,923.67
2017-02-04T03:36:59.691Z,923.64
2017-02-04T03:38:14.086Z,923.61
2017-02-04T03:39:28.450Z,923.58
2017-02-04T03:40:42.793Z,923.54
2017-02-04T03:41:57.147Z,923.52
2017-02-04T03:43:11.769Z,923.5
2017-02-04T03:44:26.144Z,923.48
2017-02-04T03:45:40.599Z,923.48
2017-02-04T03:46:54.358Z,923.45
2017-02-04T03:48:08.719Z,923.42
2017-02-04T03:49:21.828Z,923.43
2017-02-04T03:50:36.161Z,923.39
2017-02-04T03:51:50.651Z,923.39
2017-02-04T03:53:05.088Z,923.32
2017-02-04T03:54:19.523Z,923.32
2017-02-04T03:55:34.213Z,923.27
2017-02-04T03:56:48.693Z,923.25
2017-02-04T03:58:03.046Z,923.27
2017-02-04T03:59:17.409Z,923.27
2017-02-04T04:00:31.766Z,923.3
2017-02-04T04:01:46.141Z,923.29
2017-02-04T04:03:00.516Z,923.26
2017-02-04T04:04:14.844Z,923.29
2017-02-04T04:05:29.215Z,923.24
2017-02-04T04:06:43.560Z,923.21
2017-02-04T04:07:57.950Z,923.19
2017-02-04T04:09:11.711Z,923.22
2017-02-04T04:10:26.073Z,923.23
2017-02-04T04:11:40.469Z,923.25
2017-02-04T04:12:56.877Z,923.27
2017-02-04T04:14:11.259Z,923.29
2017-02-04T04:15:24.972Z,923.23
2017-02-04T04:16:39.338Z,923.21
2017-02-04T04:17:57.576Z,923.19
2017-02-04T04:19:11.953Z,923.17
2017-02-04T04:20:26.341Z,923.13
2017-02-04T04:21:40.676Z,923.13
2017-02-04T04:22:54.680Z,923.11
2017-02-04T04:24:07.776Z,923.14
2017-02-04T04:25:22.585Z,923.09
2017-02-04T04:27:01.421Z,923.04
2017-02-04T04:28:15.756Z,923.03
2017-02-04T04:29:30.149Z,923.02
2017-02-04T04:30:43.946Z,923.04
2017-02-04T04:31:57.642Z,923.05
2017-02-04T04:33:11.349Z,923.07
2017-02-04T04:34:25.710Z,923.07
2017-02-04T04:35:40.066Z,923.04
2017-02-04T04:36:54.533Z,923.05
2017-02-04T04:38:08.259Z,923.02
2017-02-04T04:39:22.593Z,922.99
2017-02-04T04:40:36.938Z,923
2017-02-04T04:41:51.292Z,922.98
2017-02-04T04:43:05.656Z,923
2017-02-04T04:44:20.074Z,922.99
2017-02-04T04:45:34.466Z,923.01
2017-02-04T04:46:48.843Z,923.03
2017-02-04T04:48:03.216Z,923.01
2017-02-04T04:49:17.588Z,923.04
2017-02-04T04:50:31.325Z,923.02
2017-02-04T04:51:45.276Z,923.03
2017-02-04T04:52:59.640Z,923.01
2017-02-04T04:54:13.969Z,923.03
2017-02-04T04:55:28.298Z,922.99
2017-02-04T04:56:42.665Z,923.02
2017-02-04T04:57:57.042Z,923.02
2017-02-04T04:59:11.408Z,923.03
2017-02-04T05:00:25.768Z,923.06
2017-02-04T05:01:40.105Z,923.05
2017-02-04T05:02:54.479Z,923.07
2017-02-04T05:04:08.831Z,923.05
2017-02-04T05:05:23.221Z,923.04
2017-02-04T05:06:37.577Z,923.07
2017-02-04T05:07:51.939Z,923.05
2017-02-04T05:09:06.296Z,923.11
2017-02-04T05:10:20.665Z,923.09
2017-02-04T05:11:34.387Z,923.06
2017-02-04T05:12:48.776Z,923.08
2017-02-04T05:14:02.488Z,923.06
2017-02-04T05:15:16.897Z,923.02
2017-02-04T05:16:31.230Z,923.01
2017-02-04T05:17:45.595Z,922.97
2017-02-04T05:18:59.306Z,922.96
2017-02-04T05:20:13.654Z,923
2017-02-04T05:21:28.089Z,922.99
2017-02-04T05:22:42.415Z,923.01
2017-02-04T05:23:56.798Z,923.02
2017-02-04T05:25:11.192Z,922.97
2017-02-04T05:26:24.937Z,922.98
2017-02-04T05:27:39.336Z,922.96
2017-02-04T05:28:53.705Z,922.99
2017-02-04T05:30:08.063Z,922.99
2017-02-04T05:31:22.419Z,922.98
2017-02-04T05:32:36.931Z,922.93
2017-02-04T05:33:50.618Z,922.92
2017-02-04T05:35:04.988Z,922.9
2017-02-04T05:36:18.716Z,922.91
2017-02-04T05:37:33.090Z,922.91
2017-02-04T05:38:47.445Z,922.87
2017-02-04T05:40:01.804Z,922.88
2017-02-04T05:41:16.158Z,922.87
2017-02-04T05:42:30.739Z,922.86
2017-02-04T05:43:45.088Z,922.9
2017-02-04T05:44:59.433Z,922.9
2017-02-04T05:46:13.800Z,922.88
2017-02-04T05:47:28.135Z,922.87
2017-02-04T05:48:42.510Z,922.88
2017-02-04T05:49:56.888Z,922.87
2017-02-04T05:51:11.239Z,922.86
2017-02-04T05:52:25.616Z,922.86
2017-02-04T05:53:40.391Z,922.85
2017-02-04T05:54:54.901Z,922.87
2017-02-04T05:56:08.606Z,922.87
2017-02-04T05:57:22.991Z,922.9
2017-02-04T05:58:36.750Z,922.85
2017-02-04T05:59:51.287Z,922.91
2017-02-04T06:01:05.923Z,922.9
2017-02-04T06:02:20.548Z,922.9
2017-02-04T06:03:34.911Z,922.92
2017-02-04T06:04:49.263Z,922.91
2017-02-04T06:06:03.630Z,922.89
2017-02-04T06:07:17.980Z,922.86
2017-02-04T06:08:32.351Z,922.86
2017-02-04T06:09:46.705Z,922.88
2017-02-04T06:11:01.084Z,922.84
2017-02-04T06:12:14.863Z,922.86
2017-02-04T06:13:29.238Z,922.83
2017-02-04T06:14:43.668Z,922.85
2017-02-04T06:15:58.012Z,922.81
2017-02-04T06:17:11.727Z,922.78
2017-02-04T06:18:26.082Z,922.8
2017-02-04T06:19:40.482Z,922.8
2017-02-04T06:20:54.861Z,922.83
2017-02-04T06:22:08.616Z,922.83
2017-02-04T06:23:22.578Z,922.85
2017-02-04T06:24:36.965Z,922.85
2017-02-04T06:25:50.695Z,922.84
2017-02-04T06:27:05.093Z,922.86
2017-02-04T06:28:18.821Z,922.82
2017-02-04T06:29:32.534Z,922.85
2017-02-04T06:30:46.247Z,922.84
2017-02-04T06:32:00.685Z,922.83
2017-02-04T06:33:15.066Z,922.85
2017-02-04T06:34:29.445Z,922.84
2017-02-04T06:35:43.916Z,922.78
2017-02-04T06:36:58.284Z,922.77
2017-02-04T06:38:12.600Z,922.79
2017-02-04T06:39:26.966Z,922.76
2017-02-04T06:40:41.323Z,922.81
2017-02-04T06:41:55.693Z,922.8
2017-02-04T06:43:09.610Z,922.83
2017-02-04T06:44:24.015Z,922.83
2017-02-04T06:45:38.379Z,922.84
2017-02-04T06:46:52.854Z,922.85
2017-02-04T06:48:07.257Z,922.81
2017-02-04T06:49:21.607Z,922.82
2017-02-04T06:50:35.979Z,922.79
2017-02-04T06:51:50.365Z,922.76
2017-02-04T06:53:04.714Z,922.8
2017-02-04T06:54:19.117Z,922.76
2017-02-04T06:55:33.482Z,922.76
2017-02-04T06:56:47.821Z,922.77
2017-02-04T06:58:02.180Z,922.76
2017-02-04T06:59:15.869Z,922.77
2017-02-04T07:00:30.324Z,922.8
2017-02-04T07:01:44.838Z,922.79
2017-02-04T07:02:59.215Z,922.76
2017-02-04T07:04:12.281Z,922.8
2017-02-04T07:05:26.027Z,922.8
2017-02-04T07:06:40.375Z,922.82
2017-02-04T07:07:54.091Z,922.81
2017-02-04T07:09:08.428Z,922.78
2017-02-04T07:10:21.514Z,922.77
2017-02-04T07:11:35.926Z,922.79
2017-02-04T07:12:50.293Z,922.75
2017-02-04T07:14:04.667Z,922.74
2017-02-04T07:15:18.375Z,922.73
2017-02-04T07:16:32.099Z,922.78
2017-02-04T07:17:46.467Z,922.8
2017-02-04T07:19:00.843Z,922.82
2017-02-04T07:20:15.248Z,922.82
2017-02-04T07:21:29.640Z,922.86
2017-02-04T07:22:44.026Z,922.87
2017-02-04T07:23:58.341Z,922.85
2017-02-04T07:25:12.072Z,922.82
2017-02-04T07:26:26.448Z,922.83
2017-02-04T07:27:40.834Z,922.85
2017-02-04T07:28:55.189Z,922.81
2017-02-04T07:30:08.907Z,922.84
2017-02-04T07:31:23.265Z,922.84
2017-02-04T07:32:37.012Z,922.82
2017-02-04T07:33:51.627Z,922.87
2017-02-04T07:35:05.998Z,922.85
2017-02-04T07:36:20.366Z,922.85
2017-02-04T07:37:34.697Z,922.79
2017-02-04T07:38:48.428Z,922.81
2017-02-04T07:40:02.833Z,922.83
2017-02-04T07:41:15.950Z,922.79
2017-02-04T07:42:30.328Z,922.81
2017-02-04T07:43:44.721Z,922.75
2017-02-04T07:44:59.074Z,922.75
2017-02-04T07:46:13.436Z,922.77
2017-02-04T07:47:27.815Z,922.74
2017-02-04T07:48:42.218Z,922.76
2017-02-04T07:49:56.565Z,922.78
2017-02-04T07:51:09.621Z,922.8
2017-02-04T07:52:24.104Z,922.85
2017-02-04T07:53:37.829Z,922.84
2017-02-04T07:54:52.189Z,922.83
2017-02-04T07:56:06.590Z,922.8
2017-02-04T07:57:20.345Z,922.83
2017-02-04T07:58:34.067Z,922.83
2017-02-04T07:59:48.499Z,922.88
2017-02-04T08:01:01.592Z,922.84
2017-02-04T08:02:16.290Z,922.91
2017-02-04T08:03:30.654Z,922.91
2017-02-04T08:04:45.008Z,922.88
2017-02-04T08:05:59.361Z,922.93
2017-02-04T08:07:13.710Z,922.9
2017-02-04T08:08:28.050Z,922.95
2017-02-04T08:09:42.439Z,922.96
2017-02-04T08:10:56.796Z,922.96
2017-02-04T08:12:10.529Z,922.98
2017-02-04T08:13:24.251Z,922.98
2017-02-04T08:14:38.172Z,922.98
2017-02-04T08:15:52.541Z,923.02
2017-02-04T08:17:06.267Z,923.02
2017-02-04T08:18:19.344Z,923.04
2017-02-04T08:19:33.683Z,923.02
2017-02-04T08:20:48.090Z,923.05
2017-02-04T08:22:02.460Z,923.06
2017-02-04T08:23:16.163Z,923.06
2017-02-04T08:24:30.536Z,923.05
2017-02-04T08:25:44.940Z,923.08
2017-02-04T08:26:59.320Z,923.08
2017-02-04T08:28:13.692Z,923.13
2017-02-04T08:29:27.449Z,923.12
2017-02-04T08:30:41.385Z,923.14
2017-02-04T08:31:55.759Z,923.14
2017-02-04T08:33:08.838Z,923.1
2017-02-04T08:34:22.536Z,923.07
2017-02-04T08:35:36.893Z,923.06
2017-02-04T08:36:51.243Z,923.05
2017-02-04T08:38:05.624Z,923.08
2017-02-04T08:39:19.351Z,923.1
2017-02-04T08:40:33.723Z,923.1
2017-02-04T08:41:48.049Z,923.1
2017-02-04T08:43:02.402Z,923.12
2017-02-04T08:44:16.728Z,923.11
2017-02-04T08:45:31.068Z,923.1
2017-02-04T08:46:44.950Z,923.13
2017-02-04T08:47:59.317Z,923.18
2017-02-04T08:49:13.044Z,923.2
2017-02-04T08:50:27.406Z,923.22
2017-02-04T08:51:41.855Z,923.23
2017-02-04T08:52:56.231Z,923.21
2017-02-04T08:54:10.609Z,923.24
2017-02-04T08:55:24.952Z,923.19
2017-02-04T08:56:38.666Z,923.22
2017-02-04T08:57:53.200Z,923.23
2017-02-04T08:59:07.572Z,923.21
2017-02-04T09:00:21.936Z,923.26
2017-02-04T09:01:36.378Z,923.27
2017-02-04T09:02:50.836Z,923.3
2017-02-04T09:04:04.537Z,923.27
2017-02-04T09:05:18.295Z,923.3
2017-02-04T09:06:32.622Z,923.28
2017-02-04T09:07:46.950Z,923.34
2017-02-04T09:09:01.262Z,923.32
2017-02-04T09:10:14.979Z,923.36
2017-02-04T09:11:29.741Z,923.41
2017-02-04T09:12:44.077Z,923.43
2017-02-04T09:13:57.824Z,923.43
2017-02-04T09:15:12.207Z,923.46
2017-02-04T09:16:26.582Z,923.44
2017-02-04T09:17:40.954Z,923.41
2017-02-04T09:18:55.323Z,923.45
2017-02-04T09:20:09.756Z,923.48
2017-02-04T09:21:24.157Z,923.5
2017-02-04T09:22:38.526Z,923.51
2017-02-04T09:23:52.887Z,923.56
2017-02-04T09:25:06.589Z,923.54
2017-02-04T09:26:21.302Z,923.56
2017-02-04T09:27:35.685Z,923.6
2017-02-04T09:28:50.058Z,923.62
2017-02-04T09:30:04.435Z,923.66
2017-02-04T09:31:17.530Z,923.71
2017-02-04T09:32:31.931Z,923.73
2017-02-04T09:33:45.650Z,923.74
2017-02-04T09:35:00.002Z,923.78
2017-02-04T09:36:14.394Z,923.77
2017-02-04T09:37:28.760Z,923.78
2017-02-04T09:38:43.135Z,923.83
2017-02-04T09:39:57.566Z,923.79
2017-02-04T09:41:11.933Z,923.84
2017-02-04T09:42:26.313Z,923.81
2017-02-04T09:43:40.677Z,923.77
2017-02-04T09:44:54.419Z,923.78
2017-02-04T09:46:08.187Z,923.79
2017-02-04T09:47:22.555Z,923.76
2017-02-04T09:48:36.922Z,923.82
2017-02-04T09:49:51.272Z,923.84
2017-02-04T09:51:04.989Z,923.88
2017-02-04T09:52:19.385Z,923.88
2017-02-04T09:53:33.790Z,923.87
2017-02-04T09:54:48.111Z,923.9
2017-02-04T09:56:02.525Z,923.85
2017-02-04T09:57:16.880Z,923.85
2017-02-04T09:58:31.230Z,923.88
2017-02-04T09:59:45.591Z,923.9
2017-02-04T10:00:59.948Z,923.88
2017-02-04T10:02:14.300Z,923.9
2017-02-04T10:03:28.014Z,923.89
2017-02-04T10:04:42.423Z,923.87
2017-02-04T10:05:55.508Z,923.88
2017-02-04T10:07:09.235Z,923.85
2017-02-04T10:08:23.657Z,923.88
2017-02-04T10:09:38.070Z,923.9
2017-02-04T10:10:52.599Z,923.92
2017-02-04T10:12:06.989Z,923.96
2017-02-04T10:13:21.345Z,923.94
2017-02-04T10:14:35.735Z,923.89
2017-02-04T10:15:50.079Z,923.89
2017-02-04T10:17:04.430Z,923.92
2017-02-04T10:18:17.547Z,923.93
2017-02-04T10:19:32.056Z,923.9
2017-02-04T10:20:46.432Z,923.94
2017-02-04T10:22:00.785Z,923.94
2017-02-04T10:23:14.511Z,924.01
2017-02-04T10:24:28.863Z,923.97
2017-02-04T10:25:43.246Z,923.96
2017-02-04T10:26:57.136Z,923.96
2017-02-04T10:28:10.226Z,923.97
2017-02-04T10:29:24.634Z,924
2017-02-04T10:30:38.384Z,923.96
2017-02-04T10:31:52.749Z,924
2017-02-04T10:33:07.096Z,924.03
2017-02-04T10:34:21.443Z,923.99
2017-02-04T10:35:35.799Z,924.03
2017-02-04T10:36:50.203Z,923.94
2017-02-04T10:38:04.573Z,924
2017-02-04T10:39:18.298Z,924.01
2017-02-04T10:40:32.686Z,924.02
2017-02-04T10:41:46.396Z,924
2017-02-04T10:43:00.204Z,924.02
2017-02-04T10:44:14.615Z,924.02
2017-02-04T10:45:28.991Z,924.03
2017-02-04T10:46:43.368Z,924.06
2017-02-04T10:47:57.142Z,924.03
2017-02-04T10:49:10.875Z,924.05
2017-02-04T10:50:25.438Z,924.02
2017-02-04T10:51:39.819Z,924.04
2017-02-04T10:52:54.229Z,924.04
2017-02-04T10:54:08.864Z,924.1
2017-02-04T10:55:23.357Z,924.07
2017-02-04T10:56:37.714Z,924.07
2017-02-04T10:57:52.114Z,924.04
2017-02-04T10:59:06.489Z,924.02
2017-02-04T11:00:20.245Z,924
2017-02-04T11:01:34.642Z,924.05
2017-02-04T11:02:49.024Z,924.07
2017-02-04T11:04:03.408Z,924.12
2017-02-04T11:05:17.790Z,924.11
2017-02-04T11:06:32.162Z,924.15
2017-02-04T11:07:46.513Z,924.16
2017-02-04T11:09:00.905Z,924.19
2017-02-04T11:10:15.263Z,924.18
2017-02-04T11:11:29.624Z,924.14
2017-02-04T11:12:43.982Z,924.16
2017-02-04T11:13:58.344Z,924.13
2017-02-04T11:15:12.066Z,924.12
2017-02-04T11:16:26.439Z,924.06
2017-02-04T11:17:40.808Z,924.12
2017-02-04T11:18:55.187Z,924.13
2017-02-04T11:20:09.567Z,924.07
2017-02-04T11:21:23.350Z,924.09
2017-02-04T11:22:37.734Z,924.07
2017-02-04T11:23:52.139Z,924.09
2017-02-04T11:25:06.494Z,924.09
2017-02-04T11:26:20.856Z,924.07
2017-02-04T11:27:34.786Z,924.07
2017-02-04T11:28:49.359Z,924.07
2017-02-04T11:30:03.738Z,924.07
2017-02-04T11:31:17.488Z,924.04
2017-02-04T11:32:31.872Z,924.01
2017-02-04T11:33:46.245Z,924.03
2017-02-04T11:35:00.579Z,924.02
2017-02-04T11:36:14.976Z,923.99
2017-02-04T11:37:29.377Z,924.06
2017-02-04T11:38:43.797Z,924.06
2017-02-04T11:39:58.142Z,924.08
2017-02-04T11:41:11.885Z,924.08
2017-02-04T11:42:26.300Z,924.13
2017-02-04T11:43:40.648Z,924.15
2017-02-04T11:44:54.391Z,924.17
2017-02-04T11:46:08.755Z,924.17
2017-02-04T11:47:23.245Z,924.25
2017-02-04T11:48:37.627Z,924.18
2017-02-04T11:49:51.988Z,924.22
2017-02-04T11:51:05.717Z,924.16
2017-02-04T11:52:20.150Z,924.21
2017-02-04T11:53:34.536Z,924.18
2017-02-04T11:54:48.902Z,924.16
2017-02-04T11:56:03.300Z,924.14
2017-02-04T11:57:17.669Z,924.07
2017-02-04T11:58:32.070Z,924.08
2017-02-04T11:59:46.460Z,924.02
2017-02-04T12:01:00.885Z,924.17
2017-02-04T12:02:15.356Z,924.05
2017-02-04T12:03:29.730Z,924.1
2017-02-04T12:04:44.133Z,924.16
2017-02-04T12:05:57.854Z,924.14
2017-02-04T12:07:12.254Z,924.14
2017-02-04T12:08:26.659Z,924.12
2017-02-04T12:09:41.044Z,924.18
2017-02-04T12:10:55.778Z,924.21
2017-02-04T12:12:10.185Z,924.21
2017-02-04T12:13:24.581Z,924.2
2017-02-04T12:14:38.955Z,924.22
2017-02-04T12:15:53.360Z,924.2
2017-02-04T12:17:07.715Z,924.23
2017-02-04T12:18:22.144Z,924.18
2017-02-04T12:19:38.389Z,924.21
2017-02-04T12:20:52.154Z,924.21
2017-02-04T12:22:06.538Z,924.19
2017-02-04T12:23:20.941Z,924.18
2017-02-04T12:24:35.310Z,924.18
2017-02-04T12:25:49.696Z,924.19
2017-02-04T12:27:04.065Z,924.16
2017-02-04T12:28:18.479Z,924.21
2017-02-04T12:29:32.826Z,924.19
2017-02-04T12:30:47.229Z,924.09
2017-02-04T12:32:01.593Z,924.12
2017-02-04T12:33:15.965Z,924.15
2017-02-04T12:34:30.316Z,924.13
2017-02-04T12:35:44.034Z,924.14
2017-02-04T12:36:58.487Z,924.15
2017-02-04T12:38:12.871Z,924.18
2017-02-04T12:39:27.224Z,924.16
2017-02-04T12:40:40.931Z,924.16
2017-02-04T12:41:54.645Z,924.15
2017-02-04T12:43:08.343Z,924.22
2017-02-04T12:44:22.094Z,924.22
2017-02-04T12:45:36.445Z,924.18
2017-02-04T12:46:50.837Z,924.21
2017-02-04T12:48:05.302Z,924.22
2017-02-04T12:49:18.698Z,924.17
2017-02-04T12:50:33.060Z,924.16
2017-02-04T12:51:47.427Z,924.15
2017-02-04T12:53:01.818Z,924.17
2017-02-04T12:54:16.193Z,924.23
2017-02-04T12:55:29.373Z,924.22
2017-02-04T12:56:43.743Z,924.21
2017-02-04T12:57:56.798Z,924.18
2017-02-04T12:59:11.176Z,924.24
2017-02-04T13:00:24.896Z,924.19
2017-02-04T13:01:39.330Z,924.2
2017-02-04T13:02:53.703Z,924.18
2017-02-04T13:04:08.067Z,924.19
2017-02-04T13:05:22.451Z,924.17
2017-02-04T13:06:37.163Z,924.2
2017-02-04T13:07:51.543Z,924.2
2017-02-04T13:09:05.906Z,924.18
2017-02-04T13:10:19.040Z,924.18
2017-02-04T13:11:32.121Z,924.13
2017-02-04T13:12:46.493Z,924.12
2017-02-04T13:14:00.251Z,924.09
2017-02-04T13:15:14.715Z,924.11
2017-02-04T13:16:29.142Z,924.15
2017-02-04T13:17:43.490Z,924.1
2017-02-04T13:18:57.899Z,924.13
2017-02-04T13:20:11.627Z,924.08
2017-02-04T13:21:25.984Z,924.1
2017-02-04T13:22:39.737Z,924.03
2017-02-04T13:23:54.099Z,924.06
2017-02-04T13:25:08.453Z,924.07
2017-02-04T13:26:22.201Z,924.06
2017-02-04T13:27:36.584Z,924.09
2017-02-04T13:28:50.975Z,924.05
2017-02-04T13:30:05.496Z,924.03
2017-02-04T13:31:19.868Z,923.97
2017-02-04T13:32:32.939Z,923.96
2017-02-04T13:33:47.341Z,923.98
2017-02-04T13:35:01.043Z,923.92
2017-02-04T13:36:15.398Z,923.94
2017-02-04T13:37:29.767Z,923.95
2017-02-04T13:38:43.509Z,923.97
2017-02-04T13:39:57.911Z,923.89
2017-02-04T13:41:11.023Z,923.89
2017-02-04T13:42:25.396Z,923.88
2017-02-04T13:43:39.096Z,923.94
2017-02-04T13:44:52.835Z,923.98
2017-02-04T13:46:07.239Z,924.03
2017-02-04T13:47:21.601Z,924.05
2017-02-04T13:48:35.363Z,924.07
2017-02-04T13:49:49.085Z,924.08
2017-02-04T13:51:03.464Z,923.98
2017-02-04T13:52:17.860Z,924.11
2017-02-04T13:53:32.257Z,923.94
2017-02-04T13:54:46.643Z,924.1
2017-02-04T13:57:13.405Z,924.03
2017-02-04T13:58:27.796Z,923.88
2017-02-04T13:59:42.205Z,923.93
2017-02-04T14:00:56.581Z,924.1
2017-02-04T14:02:10.933Z,924.14
2017-02-04T14:03:25.268Z,924.15
2017-02-04T14:04:39.662Z,924.38
2017-02-04T14:05:54.069Z,924.18
2017-02-04T14:07:08.462Z,924.28
2017-02-04T14:08:22.165Z,924.28
2017-02-04T14:09:36.563Z,924.29
2017-02-04T14:10:50.944Z,924.32
2017-02-04T14:12:05.317Z,924.23
2017-02-04T14:13:19.173Z,924.33
2017-02-04T14:14:33.530Z,924.3
2017-02-04T14:15:47.941Z,924.38
2017-02-04T14:17:02.327Z,924.35
2017-02-04T14:18:16.691Z,924.37
2017-02-04T14:19:30.424Z,924.46
2017-02-04T14:20:44.823Z,924.4
2017-02-04T14:21:59.163Z,924.41
2017-02-04T14:23:13.512Z,924.35
2017-02-04T14:24:26.609Z,924.48
2017-02-04T14:28:07.152Z,924.48
2017-02-04T14:29:21.527Z,924.33
2017-02-04T14:33:01.566Z,924.33
2017-02-04T14:34:15.301Z,924.43
2017-02-04T14:35:29.010Z,924.43
2017-02-04T14:36:42.729Z,924.22
2017-02-04T14:37:57.064Z,924.22
2017-02-04T14:42:49.953Z,924.39
2017-02-04T14:47:42.917Z,924.39
2017-02-04T14:53:49.879Z,924.1
2017-02-04T14:55:03.594Z,924.1
2017-02-04T14:59:56.767Z,924.1
2017-02-04T15:01:10.506Z,924.1
2017-02-04T15:02:25.100Z,924.1
2017-02-04T15:03:39.487Z,924.1
2017-02-04T15:04:53.859Z,923.94
2017-02-04T15:07:20.008Z,923.94
2017-02-04T15:08:33.718Z,923.93
2017-02-04T15:11:01.142Z,923.89
2017-02-04T15:12:15.511Z,923.87
2017-02-04T15:13:29.893Z,923.87
2017-02-04T15:14:44.233Z,923.85
2017-02-04T15:15:57.915Z,923.84
2017-02-04T15:17:12.274Z,923.84
2017-02-04T15:18:26.640Z,923.83
2017-02-04T15:19:40.388Z,923.81
2017-02-04T15:20:54.854Z,923.72
2017-02-04T15:22:08.693Z,923.74
2017-02-04T15:23:23.087Z,923.73
2017-02-04T15:24:37.456Z,923.7
2017-02-04T15:25:51.280Z,923.64
2017-02-04T15:27:05.674Z,923.58
2017-02-04T15:28:20.049Z,923.58
2017-02-04T15:29:34.933Z,923.52
2017-02-04T15:30:49.302Z,923.54
2017-02-04T15:32:03.720Z,923.5
2017-02-04T15:33:18.119Z,923.5
2017-02-04T15:34:32.513Z,923.45
2017-02-04T15:35:46.853Z,923.46
2017-02-04T15:37:01.259Z,923.42
2017-02-04T15:38:15.630Z,923.39
2017-02-04T15:39:30.052Z,923.41
2017-02-04T15:40:44.427Z,923.46
2017-02-04T15:41:58.156Z,923.47
2017-02-04T15:43:12.539Z,923.39
2017-02-04T15:44:26.884Z,923.4
2017-02-04T15:45:41.238Z,923.41
2017-02-04T15:46:55.590Z,923.45
2017-02-04T15:48:09.974Z,923.38
2017-02-04T15:49:23.755Z,923.34
2017-02-04T15:50:38.134Z,923.34
2017-02-04T15:51:52.540Z,923.29
2017-02-04T15:53:06.917Z,923.29